Time;durP1;ratioP1;P1;durP2;ratioP2;P2;SDS_P1;SDS_P2;PMS_P1;PMS_P2;Temp;Humidity;BMP_temperature;BMP_pressure;BME280_temperature;BME280_humidity;BME280_pressure;Samples;Min_cycle;Max_cycle;Signal;HPM_P1;HPM_P2
2021/06/17 00:00:38;;;;;;;9.15;4.25;;;;;;;18.79;63.32;96048.16;5016920;28;20033;-80
2021/06/17 00:03:05;;;;;;;6.60;4.30;;;;;;;18.69;64.07;96041.63;5013160;28;20056;-79
2021/06/17 00:05:33;;;;;;;8.85;4.90;;;;;;;18.58;64.47;96048.47;5022679;28;20035;-78
2021/06/17 00:08:01;;;;;;;6.18;4.38;;;;;;;18.71;63.79;96050.22;5003286;28;21426;-79
2021/06/17 00:10:39;;;;;;;7.47;4.40;;;;;;;18.70;63.80;96045.94;5006262;28;20034;-78
2021/06/17 00:13:08;;;;;;;7.10;4.00;;;;;;;18.72;63.56;96049.22;5021603;28;20106;-79
2021/06/17 00:15:35;;;;;;;8.10;4.93;;;;;;;18.69;63.69;96046.97;5014190;28;20087;-79
2021/06/17 00:18:02;;;;;;;6.22;4.35;;;;;;;18.66;63.72;96048.22;5037217;28;20036;-78
2021/06/17 00:20:29;;;;;;;6.15;4.30;;;;;;;18.65;63.72;96046.59;4994216;28;20048;-77
2021/06/17 00:22:55;;;;;;;7.97;4.07;;;;;;;18.57;64.45;96044.16;5017778;28;20091;-79
2021/06/17 00:25:21;;;;;;;8.30;4.68;;;;;;;18.52;64.54;96047.47;5001014;28;20036;-79
2021/06/17 00:27:47;;;;;;;8.93;4.45;;;;;;;18.49;64.47;96041.75;5031782;28;20030;-79
2021/06/17 00:30:15;;;;;;;6.35;4.47;;;;;;;18.37;65.19;96044.25;5017971;28;20040;-80
2021/06/17 00:32:41;;;;;;;6.50;4.20;;;;;;;18.25;65.58;96041.47;4998630;28;20064;-78
2021/06/17 00:35:08;;;;;;;7.38;4.85;;;;;;;18.04;66.49;96039.09;4997633;28;20025;-80
2021/06/17 00:37:34;;;;;;;6.22;4.47;;;;;;;18.09;66.36;96041.94;5018574;28;20033;-79
2021/06/17 00:39:59;;;;;;;7.93;4.53;;;;;;;18.03;66.50;96038.28;5010037;28;20021;-79
2021/06/17 00:42:26;;;;;;;9.30;4.47;;;;;;;17.99;66.70;96041.56;4991948;28;20032;-78
2021/06/17 00:44:52;;;;;;;9.25;6.15;;;;;;;17.99;66.36;96036.25;4996731;28;20175;-79
2021/06/17 00:47:18;;;;;;;8.88;4.90;;;;;;;17.95;66.40;96041.19;5006302;28;20041;-78
2021/06/17 00:49:44;;;;;;;9.50;5.03;;;;;;;17.85;66.75;96030.97;5037060;28;20021;-79
2021/06/17 00:52:11;;;;;;;7.53;4.40;;;;;;;17.88;66.27;96030.56;5005031;28;20037;-79
2021/06/17 00:54:36;;;;;;;7.65;4.90;;;;;;;17.93;66.44;96026.44;4989778;28;20029;-78
2021/06/17 00:57:07;;;;;;;8.20;4.78;;;;;;;17.95;66.20;96022.56;5021643;28;20371;-79
2021/06/17 00:59:34;;;;;;;8.68;5.22;;;;;;;18.00;65.54;96028.03;4993730;28;20569;-79
2021/06/17 01:02:00;;;;;;;9.13;4.25;;;;;;;18.14;64.93;96026.13;5013010;28;20505;-79
2021/06/17 01:04:27;;;;;;;7.97;4.90;;;;;;;18.13;64.81;96021.84;5011950;28;20036;-77
2021/06/17 01:06:54;;;;;;;6.78;4.45;;;;;;;18.09;65.13;96031.28;5011040;28;20033;-79
2021/06/17 01:09:42;;;;;;;6.85;4.47;;;;;;;18.03;65.24;96024.16;5020151;28;20761;-79
2021/06/17 01:12:45;;;;;;;6.68;4.95;;;;;;;17.98;65.54;96030.13;4999669;28;20033;-79
2021/06/17 01:15:15;;;;;;;7.33;4.90;;;;;;;17.89;65.78;96021.53;4980034;28;20042;-79
2021/06/17 01:17:45;;;;;;;8.18;4.43;;;;;;;17.90;65.75;96020.50;4995901;28;20030;-79
2021/06/17 01:20:34;;;;;;;8.75;4.75;;;;;;;17.86;65.93;96021.16;5009982;28;20111;-79
2021/06/17 01:23:21;;;;;;;8.60;4.93;;;;;;;17.90;65.70;96011.72;5030746;28;20069;-78
2021/06/17 01:26:06;;;;;;;7.93;4.82;;;;;;;17.92;65.17;96008.84;4994820;28;20033;-78
2021/06/17 01:28:35;;;;;;;7.65;4.13;;;;;;;17.89;65.49;95999.44;4995777;28;20064;-79
2021/06/17 01:31:23;;;;;;;7.68;4.85;;;;;;;17.93;64.77;96005.97;5015269;28;20025;-78
2021/06/17 01:33:51;;;;;;;5.90;3.90;;;;;;;17.96;64.72;96000.22;5016279;28;20124;-79
2021/06/17 01:36:27;;;;;;;10.35;4.40;;;;;;;17.95;64.69;95998.59;4996716;28;20439;-79
2021/06/17 01:38:56;;;;;;;7.28;4.63;;;;;;;17.84;65.08;95993.94;4985663;28;20144;-79
2021/06/17 01:41:27;;;;;;;7.13;4.40;;;;;;;17.81;65.62;96005.00;5009772;28;20025;-79
2021/06/17 01:43:54;;;;;;;6.63;4.55;;;;;;;17.79;65.44;95999.88;5010662;28;20039;-79
2021/06/17 01:46:21;;;;;;;6.65;4.60;;;;;;;17.70;65.60;96006.44;5002897;28;20498;-78
2021/06/17 01:48:51;;;;;;;6.97;4.65;;;;;;;17.72;65.58;96003.56;5011991;28;20088;-79
2021/06/17 01:51:23;;;;;;;7.13;4.25;;;;;;;17.57;66.36;95996.66;5002445;28;20088;-78
2021/06/17 01:53:50;;;;;;;8.57;4.25;;;;;;;17.62;65.95;96004.00;5008707;28;20030;-78
2021/06/17 01:56:20;;;;;;;6.47;4.45;;;;;;;17.58;65.81;95994.81;4999279;28;20127;-78
2021/06/17 01:59:05;;;;;;;7.47;4.80;;;;;;;17.43;66.84;95992.38;5018204;28;20273;-79
2021/06/17 02:01:33;;;;;;;7.35;4.78;;;;;;;17.44;66.21;95986.88;5009292;28;20030;-78
2021/06/17 02:04:01;;;;;;;7.72;5.38;;;;;;;17.38;66.46;95979.72;5007078;28;20037;-78
2021/06/17 02:06:29;;;;;;;7.25;5.10;;;;;;;17.37;66.61;95979.91;5009461;28;20021;-78
2021/06/17 02:08:56;;;;;;;6.75;5.10;;;;;;;17.37;67.06;95979.91;4995040;28;20028;-78
2021/06/17 02:11:26;;;;;;;7.57;5.10;;;;;;;17.21;67.24;95978.53;4998643;28;20025;-78
2021/06/17 02:13:54;;;;;;;7.53;4.97;;;;;;;17.07;67.63;95974.25;5016290;28;20037;-78
2021/06/17 02:16:21;;;;;;;11.00;4.97;;;;;;;17.04;67.74;95970.19;5024085;28;20061;-78
2021/06/17 02:18:50;;;;;;;7.43;4.60;;;;;;;17.03;67.21;95973.84;4997474;28;20033;-78
2021/06/17 02:21:17;;;;;;;7.13;4.25;;;;;;;17.15;65.95;95971.38;5002875;28;20478;-78
2021/06/17 02:23:48;;;;;;;7.80;4.68;;;;;;;17.13;65.75;95966.25;5001964;28;20380;-78
2021/06/17 02:26:14;;;;;;;7.30;4.30;;;;;;;17.16;65.39;95973.81;5026918;28;20048;-77
2021/06/17 02:28:47;;;;;;;6.53;4.03;;;;;;;17.17;64.92;95970.16;4995582;28;20045;-78
2021/06/17 02:31:17;;;;;;;8.20;4.22;;;;;;;17.16;64.86;95973.81;5011457;28;20085;-78
2021/06/17 02:33:45;;;;;;;7.07;3.95;;;;;;;17.16;65.11;95973.81;5035437;28;20040;-78
2021/06/17 02:36:13;;;;;;;9.68;6.03;;;;;;;17.15;64.97;95977.53;5009328;28;20434;-78
2021/06/17 02:38:40;;;;;;;8.10;4.70;;;;;;;17.05;65.60;95977.13;5010124;28;20466;-78
2021/06/17 02:41:12;;;;;;;7.40;3.92;;;;;;;17.00;65.84;95974.28;4993885;28;20052;-78
2021/06/17 02:43:42;;;;;;;10.00;4.32;;;;;;;16.93;65.96;95971.63;5033259;28;20029;-78
2021/06/17 02:46:07;;;;;;;7.05;4.15;;;;;;;16.93;65.87;95971.63;5014500;28;20052;-78
2021/06/17 02:48:33;;;;;;;6.18;4.07;;;;;;;16.94;65.44;95973.25;5004386;28;20480;-77
2021/06/17 02:50:59;;;;;;;7.18;4.28;;;;;;;16.93;65.30;95976.94;5015189;28;20037;-78
2021/06/17 02:53:25;;;;;;;6.10;4.28;;;;;;;16.94;65.09;95973.25;5026392;28;20087;-78
2021/06/17 02:55:52;;;;;;;6.05;3.50;;;;;;;16.94;65.07;95980.41;5005896;28;20033;-78
2021/06/17 02:58:24;;;;;;;7.20;3.95;;;;;;;16.92;65.02;95985.91;5026969;28;20025;-78
2021/06/17 03:00:58;;;;;;;5.90;3.85;;;;;;;16.91;64.82;95980.81;5015538;28;20048;-78
2021/06/17 03:03:55;;;;;;;7.80;4.50;;;;;;;16.87;65.29;95987.56;4999557;28;20392;-78
2021/06/17 03:06:41;;;;;;;6.53;4.57;;;;;;;16.76;65.45;95988.16;4990030;28;20102;-78
2021/06/17 03:09:14;;;;;;;7.15;4.47;;;;;;;16.74;65.65;95991.00;4993706;28;20121;-78
2021/06/17 03:11:43;;;;;;;6.53;3.92;;;;;;;16.73;66.04;95987.53;4994451;28;20040;-78
2021/06/17 03:14:13;;;;;;;8.85;4.25;;;;;;;16.76;65.18;95996.13;5009774;28;20039;-78
2021/06/17 03:16:42;;;;;;;7.80;3.88;;;;;;;16.77;65.31;96000.41;5019332;28;20050;-78
2021/06/17 03:19:10;;;;;;;7.25;3.90;;;;;;;16.80;65.13;96003.50;4989599;28;20021;-77
2021/06/17 03:21:48;;;;;;;7.15;4.05;;;;;;;16.79;66.04;95998.38;4996693;28;20107;-78
2021/06/17 03:24:16;;;;;;;9.27;5.20;;;;;;;16.78;65.55;96002.06;5012240;28;20093;-78
2021/06/17 03:26:45;;;;;;;7.80;3.90;;;;;;;16.69;65.67;95998.75;5010283;28;20037;-78
2021/06/17 03:29:15;;;;;;;7.47;4.32;;;;;;;16.74;65.53;96009.59;5007568;28;20041;-78
2021/06/17 03:31:41;;;;;;;7.82;4.18;;;;;;;16.74;65.77;96001.63;5035104;28;20112;-78
2021/06/17 03:34:09;;;;;;;8.85;4.20;;;;;;;16.79;65.82;96004.50;5005416;28;20609;-78
2021/06/17 03:36:36;;;;;;;6.63;3.97;;;;;;;16.79;65.81;96001.03;5010549;28;20083;-78
2021/06/17 03:39:04;;;;;;;6.47;3.88;;;;;;;16.75;66.09;96010.44;5002580;28;20263;-78
2021/06/17 03:41:30;;;;;;;5.30;3.90;;;;;;;16.78;66.37;96013.50;5020290;28;20836;-78
2021/06/17 03:43:57;;;;;;;8.70;4.20;;;;;;;16.73;66.83;96011.44;5011350;28;20670;-77
2021/06/17 03:46:24;;;;;;;5.85;3.90;;;;;;;16.77;66.90;96016.34;5023430;28;20037;-78
2021/06/17 03:48:52;;;;;;;8.60;4.60;;;;;;;16.76;67.37;96017.38;5014098;28;20045;-79
2021/06/17 03:51:17;;;;;;;6.85;4.13;;;;;;;16.78;66.54;96023.31;5001742;28;20025;-78
2021/06/17 03:53:45;;;;;;;7.45;3.95;;;;;;;16.83;64.90;96020.84;4995344;28;20095;-78
2021/06/17 03:56:13;;;;;;;6.82;3.78;;;;;;;16.87;64.85;96024.75;5016091;28;20097;-78
2021/06/17 03:58:42;;;;;;;5.55;3.42;;;;;;;16.90;65.23;96024.31;4995775;28;20473;-78
2021/06/17 04:01:09;;;;;;;8.38;3.70;;;;;;;17.02;64.16;96027.19;4996711;28;20696;-78
2021/06/17 04:03:36;;;;;;;6.47;3.78;;;;;;;17.07;64.04;96035.34;5025680;28;20030;-78
2021/06/17 04:06:03;;;;;;;7.15;4.20;;;;;;;17.04;64.62;96025.97;4998321;28;20645;-79
2021/06/17 04:08:34;;;;;;;6.20;3.70;;;;;;;17.10;64.59;96025.16;4991182;28;20074;-79
2021/06/17 04:11:03;;;;;;;5.85;3.78;;;;;;;17.09;64.77;96039.44;5015614;28;20029;-77
2021/06/17 04:13:34;;;;;;;8.52;3.70;;;;;;;17.10;63.88;96033.13;4997824;28;20481;-78
2021/06/17 04:16:01;;;;;;;8.40;3.50;;;;;;;17.18;63.92;96026.78;4992747;28;20033;-78
2021/06/17 04:18:29;;;;;;;5.90;3.45;;;;;;;17.23;64.18;96034.13;5011707;28;20035;-78
2021/06/17 04:20:57;;;;;;;8.45;4.00;;;;;;;17.25;63.98;96029.44;4992624;28;20075;-78
2021/06/17 04:23:24;;;;;;;7.55;4.15;;;;;;;17.33;63.81;96026.56;5015193;28;20021;-78
2021/06/17 04:25:52;;;;;;;6.03;4.10;;;;;;;17.30;64.09;96024.31;5026391;28;20057;-77
2021/06/17 04:28:19;;;;;;;7.97;3.90;;;;;;;17.36;63.86;96020.81;5017459;28;20033;-78
2021/06/17 04:30:46;;;;;;;6.82;4.35;;;;;;;17.43;64.31;96024.28;4999362;28;20642;-78
2021/06/17 04:33:14;;;;;;;7.95;3.88;;;;;;;17.51;63.67;96028.59;5016443;28;20068;-78
2021/06/17 04:35:42;;;;;;;6.20;4.13;;;;;;;17.54;64.14;96026.31;4992146;28;20458;-78
2021/06/17 04:38:13;;;;;;;7.85;3.83;;;;;;;17.63;63.29;96027.72;5009786;28;20034;-78
2021/06/17 04:40:40;;;;;;;7.40;4.28;;;;;;;17.71;63.88;96036.53;4992941;28;20030;-78
2021/06/17 04:43:07;;;;;;;5.90;4.00;;;;;;;17.76;62.87;96034.88;4994326;28;20061;-78
2021/06/17 04:45:34;;;;;;;7.82;4.40;;;;;;;17.91;62.51;96037.31;4992144;28;20034;-78
2021/06/17 04:48:07;;;;;;;8.90;4.68;;;;;;;17.94;63.08;96042.22;4993911;28;20385;-78
2021/06/17 04:50:33;;;;;;;;;;;;;;;18.05;62.08;96032.75;5042277;28;20025;-77
2021/06/17 04:52:59;;;;;;;8.40;4.03;;;;;;;18.12;61.73;96037.00;5029562;28;19928;-78
2021/06/17 04:55:24;;;;;;;7.28;3.78;;;;;;;18.07;61.28;96042.13;5002027;28;20099;-78
2021/06/17 04:57:51;;;;;;;7.72;4.15;;;;;;;18.22;62.87;96049.06;4994669;28;20065;-78
2021/06/17 05:00:17;;;;;;;6.95;4.25;;;;;;;18.49;62.70;96047.09;5025684;28;20041;-78
2021/06/17 05:02:43;;;;;;;11.23;4.07;;;;;;;18.63;63.30;96050.47;5009797;28;20060;-78
2021/06/17 05:05:09;;;;;;;10.45;4.45;;;;;;;18.70;62.59;96053.91;5003865;28;20143;-80
2021/06/17 05:12:50;;;;;;;7.43;4.75;;;;;;;19.02;61.99;96060.91;5029408;28;20044;-77
2021/06/17 05:15:16;;;;;;;13.15;5.45;;;;;;;19.13;62.16;96062.06;5002772;28;20025;-77
2021/06/17 05:17:42;;;;;;;12.05;5.50;;;;;;;19.24;62.14;96060.53;5000809;28;20116;-78
2021/06/17 05:20:10;;;;;;;10.23;4.95;;;;;;;19.23;61.91;96059.72;5013075;28;20505;-78
2021/06/17 05:22:36;;;;;;;9.38;4.75;;;;;;;19.32;62.60;96057.59;4995465;28;20112;-78
2021/06/17 05:25:03;;;;;;;8.60;5.10;;;;;;;19.49;61.56;96061.34;5013326;28;20025;-78
2021/06/17 05:27:30;;;;;;;9.77;4.72;;;;;;;19.68;60.86;96061.38;5007231;28;20038;-78
2021/06/17 05:29:56;;;;;;;8.07;4.38;;;;;;;19.86;58.05;96064.09;5019557;28;20026;-78
2021/06/17 05:32:22;;;;;;;9.82;5.07;;;;;;;19.95;59.91;96064.59;5006158;28;20374;-77
2021/06/17 05:34:47;;;;;;;11.98;6.10;;;;;;;20.09;58.09;96055.41;5014847;28;20041;-77
2021/06/17 05:37:13;;;;;;;10.85;4.93;;;;;;;20.17;58.58;96054.28;5008375;28;20037;-78
2021/06/17 05:39:40;;;;;;;6.85;4.05;;;;;;;20.40;57.57;96058.94;5012937;28;20028;-78
2021/06/17 05:42:07;;;;;;;8.55;4.18;;;;;;;20.53;56.69;96052.66;5008017;28;20057;-78
2021/06/17 05:44:33;;;;;;;6.82;3.80;;;;;;;20.98;56.19;96045.00;4999403;28;20111;-77
2021/06/17 05:46:59;;;;;;;9.10;4.07;;;;;;;21.06;56.19;96041.16;4995411;28;20125;-77
2021/06/17 05:49:25;;;;;;;6.53;4.38;;;;;;;21.40;55.41;96051.13;5014301;28;20124;-77
2021/06/17 05:51:51;;;;;;;7.32;4.00;;;;;;;21.62;54.51;96032.63;5013846;28;20070;-78
2021/06/17 05:54:18;;;;;;;7.82;4.00;;;;;;;21.62;55.30;96037.16;5017755;28;20119;-77
2021/06/17 05:56:44;;;;;;;7.90;4.30;;;;;;;21.61;55.38;96036.34;5013106;28;20041;-78
2021/06/17 05:59:10;;;;;;;6.57;3.67;;;;;;;22.16;53.47;96042.34;5037844;28;20720;-78
2021/06/17 06:01:36;;;;;;;7.13;3.53;;;;;;;21.74;54.26;96037.97;5021016;28;20079;-78
2021/06/17 06:04:01;;;;;;;6.03;3.72;;;;;;;22.33;52.83;96036.03;5015317;28;20037;-77
2021/06/17 06:06:27;;;;;;;7.97;4.05;;;;;;;22.65;51.92;96032.06;5019459;28;20067;-79
2021/06/17 06:08:53;;;;;;;8.68;4.00;;;;;;;22.70;51.29;96030.28;5004037;28;20037;-79
2021/06/17 06:11:19;;;;;;;8.13;4.47;;;;;;;22.85;52.84;96035.09;5013300;28;20486;-79
2021/06/17 06:13:46;;;;;;;6.20;4.07;;;;;;;23.08;52.03;96041.44;5014543;28;20026;-78
2021/06/17 06:16:12;;;;;;;5.88;3.22;;;;;;;22.97;51.27;96035.88;5020438;28;20045;-79
2021/06/17 06:18:38;;;;;;;6.65;4.15;;;;;;;23.44;52.49;96037.41;5020653;28;20119;-79
2021/06/17 06:21:05;;;;;;;7.50;3.67;;;;;;;23.95;51.39;96038.19;5008568;28;20032;-78
2021/06/17 06:23:31;;;;;;;8.68;4.80;;;;;;;23.64;51.47;96047.66;4998711;28;20049;-79
2021/06/17 06:26:00;;;;;;;6.97;4.05;;;;;;;23.56;52.33;96045.38;5001408;28;20022;-78
2021/06/17 06:28:26;;;;;;;11.32;4.30;;;;;;;24.04;51.98;96034.00;5023771;28;20036;-78
2021/06/17 06:30:54;;;;;;;7.97;4.20;;;;;;;24.32;51.12;96043.75;5005827;28;20029;-78
2021/06/17 06:33:21;;;;;;;6.57;4.10;;;;;;;24.55;50.54;96036.53;5013700;28;20116;-79
2021/06/17 06:35:48;;;;;;;8.32;5.50;;;;;;;24.69;50.20;96041.25;5002474;28;20048;-78
2021/06/17 06:38:14;;;;;;;9.40;4.95;;;;;;;24.60;50.48;96044.63;5017695;28;20021;-79
2021/06/17 06:40:40;;;;;;;8.82;4.40;;;;;;;24.91;50.38;96043.06;5020586;28;20095;-79
2021/06/17 06:43:08;;;;;;;7.38;4.80;;;;;;;25.30;47.73;96040.22;5010094;28;20096;-79
2021/06/17 06:45:35;;;;;;;8.70;4.70;;;;;;;26.03;46.01;96038.56;5025729;28;20099;-79
2021/06/17 06:48:01;;;;;;;8.43;5.60;;;;;;;26.14;46.76;96034.03;5007862;28;20028;-79
2021/06/17 06:50:27;;;;;;;7.28;4.90;;;;;;;25.55;46.44;96043.09;5004662;28;20037;-78
2021/06/17 06:52:54;;;;;;;9.68;5.40;;;;;;;25.97;47.28;96041.50;5000748;28;20606;-79
2021/06/17 06:55:21;;;;;;;10.70;5.60;;;;;;;25.74;45.52;96048.06;5016759;28;20041;-79
2021/06/17 06:57:48;;;;;;;8.82;5.22;;;;;;;26.30;43.96;96048.38;4997520;28;20379;-79
2021/06/17 07:00:14;;;;;;;8.40;4.95;;;;;;;26.54;43.79;96041.50;5014194;28;20044;-79
2021/06/17 07:02:41;;;;;;;7.32;4.20;;;;;;;27.44;42.24;96035.69;5005956;28;20025;-77
2021/06/17 07:05:08;;;;;;;7.13;3.90;;;;;;;27.34;42.76;96045.69;5017616;28;20486;-79
2021/06/17 07:07:33;;;;;;;5.40;3.42;;;;;;;28.07;40.32;96046.16;5004446;28;20691;-79
2021/06/17 07:09:59;;;;;;;6.68;3.53;;;;;;;27.73;42.34;96044.03;5012102;28;20033;-79
2021/06/17 07:12:25;;;;;;;8.82;4.03;;;;;;;27.63;42.19;96043.22;5024721;28;20048;-79
2021/06/17 07:14:51;;;;;;;6.93;3.65;;;;;;;28.10;41.72;96044.78;5003988;28;20409;-79
2021/06/17 07:17:17;;;;;;;8.13;3.60;;;;;;;28.89;39.10;96043.88;5017664;28;20030;-79
2021/06/17 07:19:43;;;;;;;5.38;3.55;;;;;;;28.81;39.77;96049.91;5015441;28;20120;-79
2021/06/17 07:22:09;;;;;;;6.30;3.67;;;;;;;28.99;38.91;96039.50;5016954;28;20028;-79
2021/06/17 07:24:35;;;;;;;6.35;3.42;;;;;;;30.24;36.97;96051.44;5018649;28;20040;-79
2021/06/17 07:27:03;;;;;;;6.40;3.30;;;;;;;30.46;36.72;96034.63;5014658;28;20025;-78
2021/06/17 07:29:29;;;;;;;6.32;3.25;;;;;;;31.07;35.22;96032.19;5006764;28;20064;-79
2021/06/17 07:31:55;;;;;;;5.93;3.70;;;;;;;30.46;36.43;96029.22;5000002;28;20083;-79
2021/06/17 07:34:21;;;;;;;7.90;3.47;;;;;;;30.80;36.47;96041.81;4999490;28;20029;-80
2021/06/17 07:36:48;;;;;;;5.25;3.40;;;;;;;30.26;36.98;96048.47;5012702;28;20022;-79
2021/06/17 07:39:15;;;;;;;7.80;4.65;;;;;;;31.05;35.99;96040.63;4993804;28;20044;-79
2021/06/17 07:41:41;;;;;;;7.18;4.15;;;;;;;32.15;35.41;96045.59;5004004;28;20028;-79
2021/06/17 07:44:08;;;;;;;5.63;3.60;;;;;;;32.57;33.04;96047.22;4999271;28;20035;-79
2021/06/17 07:46:33;;;;;;;5.78;3.60;;;;;;;31.43;35.50;96044.13;4986817;28;20103;-79
2021/06/17 07:49:00;;;;;;;6.13;3.38;;;;;;;32.75;32.90;96052.84;5041901;28;20033;-80
2021/06/17 07:51:30;;;;;;;6.72;3.55;;;;;;;32.93;33.10;96051.91;5009918;28;20041;-79
2021/06/17 07:54:01;;;;;;;9.65;3.38;;;;;;;31.73;34.10;96046.66;4998965;28;20044;-79
2021/06/17 07:56:28;;;;;;;5.88;3.70;;;;;;;32.06;33.97;96045.50;5037208;28;20029;-78
2021/06/17 07:58:54;;;;;;;6.00;3.38;;;;;;;31.12;36.85;96049.22;5016613;28;20660;-80
2021/06/17 08:01:20;;;;;;;5.07;3.30;;;;;;;30.76;36.89;96051.66;5004669;28;20041;-80
2021/06/17 08:03:45;;;;;;;7.90;4.00;;;;;;;31.82;35.06;96047.53;5009567;28;20502;-80
2021/06/17 08:06:11;;;;;;;5.95;2.88;;;;;;;33.41;31.33;96045.09;5013531;28;20033;-80
2021/06/17 08:08:37;;;;;;;5.45;3.13;;;;;;;33.53;31.39;96048.09;4996248;28;20018;-80
2021/06/17 08:11:02;;;;;;;6.53;3.67;;;;;;;32.76;31.50;96052.53;5005013;28;20041;-79
2021/06/17 08:13:28;;;;;;;5.22;3.10;;;;;;;33.10;31.14;96051.28;5001888;28;20025;-80
2021/06/17 08:15:54;;;;;;;4.68;3.15;;;;;;;34.44;29.76;96047.59;5016690;28;20558;-79
2021/06/17 08:18:20;;;;;;;6.35;2.97;;;;;;;34.97;28.82;96049.31;5019775;28;20044;-80
2021/06/17 08:20:46;;;;;;;5.88;3.28;;;;;;;34.92;28.32;96052.19;4998409;28;20029;-80
2021/06/17 08:23:11;;;;;;;5.70;3.00;;;;;;;35.51;27.24;96053.66;5026839;28;20118;-80
2021/06/17 08:25:37;;;;;;;7.82;4.03;;;;;;;36.18;27.29;96044.84;4999877;28;20037;-80
2021/06/17 08:28:04;;;;;;;5.38;3.38;;;;;;;35.64;27.53;96044.50;5030730;28;20036;-79
2021/06/17 08:30:35;;;;;;;6.75;3.30;;;;;;;36.17;27.31;96048.72;5002330;28;20049;-80
2021/06/17 08:33:01;;;;;;;6.60;3.30;;;;;;;35.47;27.60;96055.44;5027448;28;20037;-80
2021/06/17 08:35:26;;;;;;;6.60;3.47;;;;;;;35.24;27.62;96054.81;5009731;28;20026;-79
2021/06/17 08:37:54;;;;;;;8.68;5.60;;;;;;;35.33;26.90;96052.88;4998645;28;20119;-80
2021/06/17 08:40:24;;;;;;;9.63;3.33;;;;;;;33.72;28.75;96056.06;5008620;28;20108;-80
2021/06/17 08:42:50;;;;;;;7.10;3.17;;;;;;;34.23;28.01;96057.47;5001977;28;20041;-80
2021/06/17 08:45:15;;;;;;;6.72;3.45;;;;;;;35.81;26.53;96052.66;4999246;28;20949;-80
2021/06/17 08:47:42;;;;;;;8.13;3.20;;;;;;;36.07;26.69;96041.66;5004578;28;20045;-80
2021/06/17 08:50:10;;;;;;;4.05;3.00;;;;;;;35.66;25.92;96047.72;5035476;28;20016;-80
2021/06/17 08:52:40;;;;;;;7.05;3.67;;;;;;;36.65;25.80;96046.72;5011603;28;20087;-81
2021/06/17 08:55:10;;;;;;;7.45;3.25;;;;;;;35.41;26.03;96047.41;5010789;28;20025;-81
2021/06/17 08:57:36;;;;;;;6.13;3.05;;;;;;;36.20;25.02;96037.09;4999031;28;20384;-81
2021/06/17 09:00:24;;;;;;;7.43;3.28;;;;;;;34.42;28.48;96036.19;5020486;28;20059;-81
2021/06/17 09:02:54;;;;;;;7.45;3.38;;;;;;;34.35;27.65;96044.03;4991457;28;20048;-81
2021/06/17 09:05:20;;;;;;;7.47;3.17;;;;;;;35.81;25.67;96033.50;5001621;28;20052;-81
2021/06/17 09:07:46;;;;;;;7.05;3.40;;;;;;;36.65;26.60;96035.78;5008107;28;20072;-81
2021/06/17 09:10:12;;;;;;;5.65;3.22;;;;;;;36.03;28.25;96037.19;5018917;28;20521;-81
2021/06/17 09:12:47;;;;;;;8.30;4.35;;;;;;;36.41;26.74;96039.09;4989197;28;20025;-81
2021/06/17 09:15:14;;;;;;;6.35;3.60;;;;;;;34.87;26.79;96049.63;5024872;28;20036;-81
2021/06/17 09:17:40;;;;;;;5.45;3.78;;;;;;;35.50;26.63;96052.06;5005191;28;20045;-81
2021/06/17 09:20:10;;;;;;;6.55;3.03;;;;;;;36.20;26.17;96048.06;4995346;28;20037;-81
2021/06/17 09:22:37;;;;;;;6.57;3.63;;;;;;;34.81;28.02;96047.34;4994424;28;20057;-82
2021/06/17 09:25:04;;;;;;;7.65;3.65;;;;;;;36.95;24.34;96039.28;4997185;28;20087;-81
2021/06/17 09:27:38;;;;;;;5.97;3.00;;;;;;;37.78;23.27;96032.94;4998213;28;20095;-82
2021/06/17 09:30:24;;;;;;;4.15;2.88;;;;;;;37.69;23.55;96035.75;5011128;28;20038;-82
2021/06/17 09:32:53;;;;;;;6.63;3.35;;;;;;;37.47;23.75;96038.91;5012211;28;20879;-81
2021/06/17 09:35:23;;;;;;;5.63;2.90;;;;;;;36.13;25.66;96025.88;5009563;28;20735;-82
2021/06/17 09:37:49;;;;;;;5.13;3.30;;;;;;;35.07;27.08;96034.56;5006484;28;20152;-81
2021/06/17 09:40:50;;;;;;;5.90;3.42;;;;;;;35.41;25.27;96028.28;5015728;28;20017;-81
2021/06/17 09:43:22;;;;;;;6.45;3.75;;;;;;;35.68;26.12;96020.81;5020992;28;20040;-81
2021/06/17 09:46:01;;;;;;;4.00;2.80;;;;;;;36.79;25.00;96028.91;4996646;28;20045;-81
2021/06/17 09:48:34;;;;;;;4.45;2.80;;;;;;;36.74;23.08;96033.78;5009578;28;20739;-81
2021/06/17 09:51:26;;;;;;;4.43;2.97;;;;;;;35.88;24.14;96033.00;5014810;28;20030;-81
2021/06/17 09:54:04;;;;;;;7.78;3.08;;;;;;;37.23;22.58;96029.41;5008093;28;20068;-81
2021/06/17 09:56:32;;;;;;;6.57;3.20;;;;;;;35.62;24.83;96036.63;5029653;28;20120;-81
2021/06/17 09:58:58;;;;;;;5.07;2.80;;;;;;;36.29;23.54;96034.34;5046052;28;20025;-81
2021/06/17 10:01:44;;;;;;;5.50;2.70;;;;;;;36.21;23.25;96037.91;5001014;28;20064;-82
2021/06/17 10:04:12;;;;;;;5.85;3.05;;;;;;;35.98;23.14;96031.84;4997401;28;20025;-82
2021/06/17 10:06:41;;;;;;;5.03;2.70;;;;;;;36.91;22.43;96027.38;5003904;28;20364;-82
2021/06/17 10:09:11;;;;;;;3.83;2.60;;;;;;;36.87;21.96;96031.94;5012149;28;20029;-81
2021/06/17 10:11:39;;;;;;;3.03;2.50;;;;;;;37.77;21.86;96014.06;5011201;28;20509;-82
2021/06/17 10:14:06;;;;;;;4.57;2.80;;;;;;;37.42;21.86;96012.44;5003839;28;20479;-81
2021/06/17 10:16:32;;;;;;;4.03;2.65;;;;;;;37.38;21.54;96008.78;5005887;28;20040;-81
2021/06/17 10:19:00;;;;;;;6.35;2.70;;;;;;;35.15;21.58;96013.81;5020754;28;20037;-81
2021/06/17 10:21:26;;;;;;;6.13;2.53;;;;;;;34.54;24.34;96008.25;5001525;28;20045;-81
2021/06/17 10:23:53;;;;;;;3.38;2.30;;;;;;;35.60;22.18;96016.19;5004351;28;20034;-81
2021/06/17 10:26:21;;;;;;;4.03;2.00;;;;;;;34.91;21.51;96026.00;5000918;28;20093;-81
2021/06/17 10:28:50;;;;;;;6.05;2.00;;;;;;;35.72;19.31;96021.81;5018583;28;20036;-81
2021/06/17 10:31:39;;;;;;;3.67;2.03;;;;;;;37.02;18.34;96023.13;5008757;28;20110;-82
2021/06/17 10:34:26;;;;;;;4.28;2.33;;;;;;;37.35;18.72;96020.41;4999744;28;20025;-82
2021/06/17 10:37:11;;;;;;;6.18;2.33;;;;;;;37.21;19.20;96022.66;5008051;28;20043;-82
2021/06/17 10:39:47;;;;;;;3.85;2.35;;;;;;;36.68;20.13;96029.63;5003271;28;20097;-82
2021/06/17 10:42:17;;;;;;;5.22;2.53;;;;;;;36.52;20.48;96026.66;5012745;28;20041;-82
2021/06/17 10:44:54;;;;;;;4.10;2.20;;;;;;;36.54;20.99;96032.63;5003314;28;20060;-83
2021/06/17 10:47:49;;;;;;;4.25;2.30;;;;;;;36.65;20.18;96036.56;5010162;28;20030;-81
2021/06/17 10:50:18;;;;;;;3.42;2.05;;;;;;;38.12;18.78;96034.50;5005284;28;20061;-81
2021/06/17 10:52:45;;;;;;;4.65;2.15;;;;;;;38.72;17.42;96036.81;5015303;28;20040;-82
2021/06/17 10:55:15;;;;;;;3.55;2.28;;;;;;;37.70;18.53;96031.09;5012117;28;20096;-82
2021/06/17 10:57:48;;;;;;;4.47;2.03;;;;;;;38.48;17.49;96027.44;4999319;28;20045;-82
2021/06/17 11:00:26;;;;;;;4.13;2.40;;;;;;;38.58;18.59;96026.97;4992982;28;20030;-82
2021/06/17 11:03:01;;;;;;;3.45;2.10;;;;;;;39.01;18.50;96027.50;4994613;28;20081;-82
2021/06/17 11:05:30;;;;;;;3.38;2.20;;;;;;;38.84;18.92;96023.09;4999313;28;20487;-83
2021/06/17 11:08:14;;;;;;;8.88;2.92;;;;;;;39.00;19.34;96025.88;5000426;28;20120;-82
2021/06/17 11:10:52;;;;;;;2.72;1.80;;;;;;;36.39;20.82;96028.50;5015989;28;20043;-82
2021/06/17 11:13:34;;;;;;;3.65;2.10;;;;;;;36.63;20.89;96032.56;5019265;28;20021;-82
2021/06/17 11:16:23;;;;;;;4.13;2.40;;;;;;;37.99;18.46;96027.38;4996834;28;20128;-81
2021/06/17 11:21:25;;;;;;;3.75;2.33;;;;;;;38.82;18.05;96030.88;5018161;28;20032;-82
2021/06/17 11:23:53;;;;;;;5.15;2.20;;;;;;;38.29;18.91;96029.94;5030549;28;20125;-83
2021/06/17 11:26:39;;;;;;;5.35;2.20;;;;;;;37.88;17.99;96021.50;4983088;28;20080;-83
2021/06/17 11:29:06;;;;;;;4.13;1.98;;;;;;;39.17;16.94;96022.06;4997137;28;20034;-83
2021/06/17 11:31:40;;;;;;;4.57;2.33;;;;;;;39.67;17.38;96031.72;4997248;28;20097;-82
2021/06/17 11:34:11;;;;;;;2.17;1.70;;;;;;;40.28;15.06;96025.88;5023364;28;20041;-83
2021/06/17 11:37:21;;;;;;;5.15;2.17;;;;;;;39.52;13.41;96028.59;5008275;28;20048;-84
2021/06/17 11:39:48;;;;;;;4.13;1.77;;;;;;;41.29;14.52;96020.69;5010826;28;20033;-83
2021/06/17 11:42:20;;;;;;;3.22;1.92;;;;;;;40.87;14.31;96021.34;5009379;28;20316;-82
2021/06/17 11:45:08;;;;;;;3.13;2.13;;;;;;;41.67;13.54;96014.34;5010878;28;20042;-83
2021/06/17 11:47:46;;;;;;;4.05;1.85;;;;;;;39.82;14.33;96011.72;4996781;28;20573;-81
2021/06/17 11:50:13;;;;;;;4.10;1.85;;;;;;;40.21;14.47;96014.66;5019791;28;20029;-81
2021/06/17 11:52:40;;;;;;;3.42;1.70;;;;;;;39.82;13.64;96007.00;4996253;28;20032;-83